sensor_id;sensor_type;location;lat;lon;timestamp;pressure;altitude;pressure_sealevel;temperature;humidity
70571;BME280;58135;50.948;-1.458;2023-01-28T00:00:47;102887.29;;;6.56;31.63
70571;BME280;58135;50.948;-1.458;2023-01-28T00:01:48;102888.15;;;6.54;31.62
70571;BME280;58135;50.948;-1.458;2023-01-28T00:02:48;102883.39;;;6.54;31.62
70571;BME280;58135;50.948;-1.458;2023-01-28T00:03:49;102884.99;;;7.04;31.64
70571;BME280;58135;50.948;-1.458;2023-01-28T00:04:48;102883.52;;;6.66;31.60
70571;BME280;58135;50.948;-1.458;2023-01-28T00:05:50;102880.61;;;6.68;31.57
70571;BME280;58135;50.948;-1.458;2023-01-28T00:06:49;102876.44;;;6.71;31.50
70571;BME280;58135;50.948;-1.458;2023-01-28T00:07:50;102879.10;;;6.72;31.53
70571;BME280;58135;50.948;-1.458;2023-01-28T00:08:50;102882.15;;;6.71;31.50
70571;BME280;58135;50.948;-1.458;2023-01-28T00:09:50;102883.24;;;6.66;31.52
70571;BME280;58135;50.948;-1.458;2023-01-28T00:10:50;102885.76;;;6.58;31.57
70571;BME280;58135;50.948;-1.458;2023-01-28T00:11:51;102884.53;;;6.49;31.67
70571;BME280;58135;50.948;-1.458;2023-01-28T00:12:51;102882.25;;;6.45;31.70
70571;BME280;58135;50.948;-1.458;2023-01-28T00:13:52;102884.45;;;6.40;31.76
70571;BME280;58135;50.948;-1.458;2023-01-28T00:14:51;102880.48;;;7.37;31.81
70571;BME280;58135;50.948;-1.458;2023-01-28T00:15:54;102878.79;;;7.39;31.79
70571;BME280;58135;50.948;-1.458;2023-01-28T00:16:52;102877.56;;;6.44;31.82
70571;BME280;58135;50.948;-1.458;2023-01-28T00:17:53;102874.67;;;6.45;31.81
70571;BME280;58135;50.948;-1.458;2023-01-28T00:18:53;102877.13;;;6.54;31.82
70571;BME280;58135;50.948;-1.458;2023-01-28T00:19:54;102876.10;;;7.01;31.77
70571;BME280;58135;50.948;-1.458;2023-01-28T00:20:56;102874.84;;;6.56;31.73
70571;BME280;58135;50.948;-1.458;2023-01-28T00:21:55;102872.96;;;6.03;31.78
70571;BME280;58135;50.948;-1.458;2023-01-28T00:22:55;102871.05;;;6.45;31.84
70571;BME280;58135;50.948;-1.458;2023-01-28T00:23:56;102869.67;;;6.51;31.84
70571;BME280;58135;50.948;-1.458;2023-01-28T00:24:57;102870.37;;;6.52;31.79
70571;BME280;58135;50.948;-1.458;2023-01-28T00:25:58;102869.66;;;6.49;31.79
70571;BME280;58135;50.948;-1.458;2023-01-28T00:26:57;102870.79;;;6.48;31.82
70571;BME280;58135;50.948;-1.458;2023-01-28T00:27:58;102867.22;;;6.90;31.82
70571;BME280;58135;50.948;-1.458;2023-01-28T00:28:59;102867.23;;;6.39;31.85
70571;BME280;58135;50.948;-1.458;2023-01-28T00:30:00;102866.28;;;6.43;31.86
70571;BME280;58135;50.948;-1.458;2023-01-28T00:31:05;102863.37;;;6.51;31.82
70571;BME280;58135;50.948;-1.458;2023-01-28T00:32:00;102869.25;;;6.55;31.76
70571;BME280;58135;50.948;-1.458;2023-01-28T00:33:01;102868.11;;;6.63;31.75
70571;BME280;58135;50.948;-1.458;2023-01-28T00:34:01;102868.70;;;6.71;31.68
70571;BME280;58135;50.948;-1.458;2023-01-28T00:35:02;102868.26;;;6.23;31.65
70571;BME280;58135;50.948;-1.458;2023-01-28T00:36:04;102865.53;;;6.73;31.69
70571;BME280;58135;50.948;-1.458;2023-01-28T00:37:04;102864.56;;;6.40;31.62
70571;BME280;58135;50.948;-1.458;2023-01-28T00:38:04;102863.61;;;6.33;31.50
70571;BME280;58135;50.948;-1.458;2023-01-28T00:39:05;102865.50;;;6.69;31.63
70571;BME280;58135;50.948;-1.458;2023-01-28T00:40:07;102865.50;;;6.69;31.67
70571;BME280;58135;50.948;-1.458;2023-01-28T00:41:07;102866.10;;;6.75;31.70
70571;BME280;58135;50.948;-1.458;2023-01-28T00:42:06;102868.39;;;6.78;31.64
70571;BME280;58135;50.948;-1.458;2023-01-28T00:43:07;102868.84;;;6.83;31.61
70571;BME280;58135;50.948;-1.458;2023-01-28T00:44:08;102870.92;;;6.83;31.61
70571;BME280;58135;50.948;-1.458;2023-01-28T00:45:08;102871.98;;;6.82;31.61
70571;BME280;58135;50.948;-1.458;2023-01-28T00:46:09;102869.61;;;6.82;31.59
70571;BME280;58135;50.948;-1.458;2023-01-28T00:47:08;102870.03;;;6.78;31.57
70571;BME280;58135;50.948;-1.458;2023-01-28T00:48:08;102868.54;;;6.68;31.63
70571;BME280;58135;50.948;-1.458;2023-01-28T00:49:09;102872.10;;;6.63;31.70
70571;BME280;58135;50.948;-1.458;2023-01-28T00:50:10;102871.97;;;6.64;31.77
70571;BME280;58135;50.948;-1.458;2023-01-28T00:51:11;102868.53;;;6.66;31.69
70571;BME280;58135;50.948;-1.458;2023-01-28T00:52:10;102867.41;;;6.70;31.67
70571;BME280;58135;50.948;-1.458;2023-01-28T00:53:10;102861.34;;;6.26;31.66
70571;BME280;58135;50.948;-1.458;2023-01-28T00:54:11;102863.18;;;6.70;31.59
70571;BME280;58135;50.948;-1.458;2023-01-28T00:55:10;102867.59;;;6.64;31.64
70571;BME280;58135;50.948;-1.458;2023-01-28T00:56:12;102865.07;;;6.58;31.70
70571;BME280;58135;50.948;-1.458;2023-01-28T00:57:11;102871.59;;;6.54;31.66
70571;BME280;58135;50.948;-1.458;2023-01-28T00:58:12;102872.08;;;6.49;31.72
70571;BME280;58135;50.948;-1.458;2023-01-28T00:59:12;102872.54;;;6.47;31.72
70571;BME280;58135;50.948;-1.458;2023-01-28T01:00:13;102875.60;;;6.54;31.79
70571;BME280;58135;50.948;-1.458;2023-01-28T01:01:15;102873.91;;;6.48;31.83
70571;BME280;58135;50.948;-1.458;2023-01-28T01:02:13;102874.12;;;6.40;31.89
70571;BME280;58135;50.948;-1.458;2023-01-28T01:03:15;102873.85;;;6.40;31.86
70571;BME280;58135;50.948;-1.458;2023-01-28T01:04:15;102875.69;;;6.36;31.89
70571;BME280;58135;50.948;-1.458;2023-01-28T01:05:15;102877.74;;;6.40;31.82
70571;BME280;58135;50.948;-1.458;2023-01-28T01:06:15;102876.94;;;6.85;31.85
70571;BME280;58135;50.948;-1.458;2023-01-28T01:07:16;102875.86;;;6.41;31.93
70571;BME280;58135;50.948;-1.458;2023-01-28T01:08:16;102875.33;;;6.45;31.90
70571;BME280;58135;50.948;-1.458;2023-01-28T01:09:17;102871.96;;;6.52;31.86
70571;BME280;58135;50.948;-1.458;2023-01-28T01:10:18;102867.53;;;6.62;31.82
70571;BME280;58135;50.948;-1.458;2023-01-28T01:11:18;102869.27;;;6.68;31.76
70571;BME280;58135;50.948;-1.458;2023-01-28T01:12:18;102866.91;;;6.65;31.65
70571;BME280;58135;50.948;-1.458;2023-01-28T01:13:19;102866.97;;;6.65;31.66
70571;BME280;58135;50.948;-1.458;2023-01-28T01:14:20;102866.90;;;6.23;31.64
70571;BME280;58135;50.948;-1.458;2023-01-28T01:15:20;102867.93;;;7.14;31.65
70571;BME280;58135;50.948;-1.458;2023-01-28T01:16:22;102871.04;;;6.70;31.68
70571;BME280;58135;50.948;-1.458;2023-01-28T01:17:21;102870.63;;;6.76;31.67
70571;BME280;58135;50.948;-1.458;2023-01-28T01:18:21;102872.86;;;6.36;31.62
70571;BME280;58135;50.948;-1.458;2023-01-28T01:19:22;102873.01;;;6.88;31.54
70571;BME280;58135;50.948;-1.458;2023-01-28T01:20:24;102871.21;;;6.92;31.52
70571;BME280;58135;50.948;-1.458;2023-01-28T01:21:26;102873.45;;;6.95;31.54
70571;BME280;58135;50.948;-1.458;2023-01-28T01:22:23;102873.91;;;6.54;31.51
70571;BME280;58135;50.948;-1.458;2023-01-28T01:23:24;102872.19;;;6.44;31.42
70571;BME280;58135;50.948;-1.458;2023-01-28T01:24:23;102871.78;;;6.71;31.49
70571;BME280;58135;50.948;-1.458;2023-01-28T01:25:24;102877.72;;;6.55;31.64
70571;BME280;58135;50.948;-1.458;2023-01-28T01:26:24;102877.86;;;6.48;31.73
70571;BME280;58135;50.948;-1.458;2023-01-28T01:27:24;102877.18;;;6.92;31.79
70571;BME280;58135;50.948;-1.458;2023-01-28T01:28:24;102876.63;;;6.54;31.77
70571;BME280;58135;50.948;-1.458;2023-01-28T01:29:24;102876.63;;;6.11;31.77
70571;BME280;58135;50.948;-1.458;2023-01-28T01:30:25;102875.52;;;6.68;31.82
70571;BME280;58135;50.948;-1.458;2023-01-28T01:31:25;102878.07;;;6.69;31.75
70571;BME280;58135;50.948;-1.458;2023-01-28T01:32:29;102877.58;;;6.61;31.71
70571;BME280;58135;50.948;-1.458;2023-01-28T01:33:27;102876.83;;;6.58;31.72
70571;BME280;58135;50.948;-1.458;2023-01-28T01:34:27;102872.16;;;6.63;31.68
70571;BME280;58135;50.948;-1.458;2023-01-28T01:35:27;102873.05;;;6.68;31.60
70571;BME280;58135;50.948;-1.458;2023-01-28T01:36:28;102870.70;;;6.67;31.55
70571;BME280;58135;50.948;-1.458;2023-01-28T01:37:28;102868.55;;;6.25;31.60
70571;BME280;58135;50.948;-1.458;2023-01-28T01:38:28;102867.15;;;6.72;31.53
70571;BME280;58135;50.948;-1.458;2023-01-28T01:39:28;102867.67;;;6.62;31.59
70571;BME280;58135;50.948;-1.458;2023-01-28T01:40:29;102870.99;;;6.08;31.56
70571;BME280;58135;50.948;-1.458;2023-01-28T01:41:31;102872.20;;;6.32;31.59
70571;BME280;58135;50.948;-1.458;2023-01-28T01:42:30;102876.12;;;7.09;31.77
70571;BME280;58135;50.948;-1.458;2023-01-28T01:43:46;102881.25;;;6.19;31.88
70571;BME280;58135;50.948;-1.458;2023-01-28T01:44:54;102882.94;;;7.00;31.83
70571;BME280;58135;50.948;-1.458;2023-01-28T01:45:33;102884.94;;;5.97;32.01
70571;BME280;58135;50.948;-1.458;2023-01-28T01:46:34;102887.27;;;5.98;32.05
70571;BME280;58135;50.948;-1.458;2023-01-28T01:47:37;102887.22;;;6.09;32.03
70571;BME280;58135;50.948;-1.458;2023-01-28T01:48:33;102881.94;;;7.09;31.91
70571;BME280;58135;50.948;-1.458;2023-01-28T01:49:33;102882.65;;;6.09;31.88
70571;BME280;58135;50.948;-1.458;2023-01-28T01:50:36;102881.99;;;5.94;32.01
70571;BME280;58135;50.948;-1.458;2023-01-28T01:51:33;102882.28;;;5.84;32.09
70571;BME280;58135;50.948;-1.458;2023-01-28T01:52:35;102883.75;;;5.82;32.13
70571;BME280;58135;50.948;-1.458;2023-01-28T01:53:35;102881.27;;;6.77;32.19
70571;BME280;58135;50.948;-1.458;2023-01-28T01:54:37;102881.63;;;5.98;32.19
70571;BME280;58135;50.948;-1.458;2023-01-28T01:55:38;102882.08;;;6.16;32.11
70571;BME280;58135;50.948;-1.458;2023-01-28T01:56:40;102882.52;;;6.75;31.94
70571;BME280;58135;50.948;-1.458;2023-01-28T01:57:36;102882.10;;;6.36;31.90
70571;BME280;58135;50.948;-1.458;2023-01-28T01:58:39;102881.30;;;5.92;31.80
70571;BME280;58135;50.948;-1.458;2023-01-28T01:59:37;102883.11;;;6.35;31.74
70571;BME280;58135;50.948;-1.458;2023-01-28T02:00:38;102881.36;;;6.40;31.71
70571;BME280;58135;50.948;-1.458;2023-01-28T02:01:38;102882.76;;;6.47;31.72
70571;BME280;58135;50.948;-1.458;2023-01-28T02:02:40;102882.69;;;6.96;31.63
70571;BME280;58135;50.948;-1.458;2023-01-28T02:03:43;102880.76;;;6.48;31.63
70571;BME280;58135;50.948;-1.458;2023-01-28T02:04:40;102876.63;;;6.46;31.66
70571;BME280;58135;50.948;-1.458;2023-01-28T02:05:39;102877.93;;;6.47;31.64
70571;BME280;58135;50.948;-1.458;2023-01-28T02:06:39;102876.90;;;6.52;31.64
70571;BME280;58135;50.948;-1.458;2023-01-28T02:07:42;102873.37;;;7.52;31.67
70571;BME280;58135;50.948;-1.458;2023-01-28T02:08:41;102872.52;;;6.67;31.63
70571;BME280;58135;50.948;-1.458;2023-01-28T02:09:41;102873.06;;;6.67;31.52
70571;BME280;58135;50.948;-1.458;2023-01-28T02:10:42;102875.00;;;7.07;31.49
70571;BME280;58135;50.948;-1.458;2023-01-28T02:11:42;102875.45;;;6.58;31.59
70571;BME280;58135;50.948;-1.458;2023-01-28T02:12:45;102877.84;;;6.59;31.60
70571;BME280;58135;50.948;-1.458;2023-01-28T02:13:45;102880.45;;;6.55;31.63
70571;BME280;58135;50.948;-1.458;2023-01-28T02:14:46;102881.71;;;7.06;31.63
70571;BME280;58135;50.948;-1.458;2023-01-28T02:15:43;102880.39;;;6.71;31.57
70571;BME280;58135;50.948;-1.458;2023-01-28T02:16:43;102879.68;;;6.73;31.57
70571;BME280;58135;50.948;-1.458;2023-01-28T02:17:44;102881.67;;;6.70;31.58
70571;BME280;58135;50.948;-1.458;2023-01-28T02:18:44;102882.77;;;6.60;31.54
70571;BME280;58135;50.948;-1.458;2023-01-28T02:19:48;102882.49;;;6.52;31.65
70571;BME280;58135;50.948;-1.458;2023-01-28T02:21:00;102884.25;;;6.52;31.65
70571;BME280;58135;50.948;-1.458;2023-01-28T02:21:59;102883.80;;;6.53;31.67
70571;BME280;58135;50.948;-1.458;2023-01-28T02:23:01;102886.17;;;6.47;31.79
70571;BME280;58135;50.948;-1.458;2023-01-28T02:24:18;102886.92;;;6.42;31.76
70571;BME280;58135;50.948;-1.458;2023-01-28T02:24:56;102886.73;;;6.44;31.78
70571;BME280;58135;50.948;-1.458;2023-01-28T02:26:58;102888.19;;;6.85;31.58
70571;BME280;58135;50.948;-1.458;2023-01-28T02:27:55;102887.57;;;6.27;31.73
70571;BME280;58135;50.948;-1.458;2023-01-28T02:28:49;102890.22;;;6.23;31.80
70571;BME280;58135;50.948;-1.458;2023-01-28T02:29:53;102890.29;;;6.68;31.88
70571;BME280;58135;50.948;-1.458;2023-01-28T02:30:51;102891.21;;;6.74;31.90
70571;BME280;58135;50.948;-1.458;2023-01-28T02:31:52;102890.47;;;6.30;31.81
70571;BME280;58135;50.948;-1.458;2023-01-28T02:32:53;102892.01;;;6.78;31.80
70571;BME280;58135;50.948;-1.458;2023-01-28T02:33:51;102891.91;;;7.28;31.78
70571;BME280;58135;50.948;-1.458;2023-01-28T02:34:54;102887.94;;;7.37;31.77
70571;BME280;58135;50.948;-1.458;2023-01-28T02:35:52;102892.51;;;6.53;31.70
70571;BME280;58135;50.948;-1.458;2023-01-28T02:36:53;102892.55;;;7.48;31.60
70571;BME280;58135;50.948;-1.458;2023-01-28T02:37:53;102893.03;;;6.52;31.62
70571;BME280;58135;50.948;-1.458;2023-01-28T02:38:51;102895.72;;;6.57;31.59
70571;BME280;58135;50.948;-1.458;2023-01-28T02:39:53;102894.35;;;6.65;31.49
70571;BME280;58135;50.948;-1.458;2023-01-28T02:40:54;102892.57;;;6.28;31.47
70571;BME280;58135;50.948;-1.458;2023-01-28T02:41:54;102887.07;;;6.77;31.39
70571;BME280;58135;50.948;-1.458;2023-01-28T02:42:51;102885.76;;;6.82;31.45
70571;BME280;58135;50.948;-1.458;2023-01-28T02:43:51;102884.47;;;6.78;31.38
70571;BME280;58135;50.948;-1.458;2023-01-28T02:44:52;102888.29;;;6.82;31.42
70571;BME280;58135;50.948;-1.458;2023-01-28T02:45:52;102886.91;;;6.87;31.32
70571;BME280;58135;50.948;-1.458;2023-01-28T02:46:53;102887.26;;;6.83;31.29
70571;BME280;58135;50.948;-1.458;2023-01-28T02:47:54;102891.16;;;6.78;31.39
70571;BME280;58135;50.948;-1.458;2023-01-28T02:48:54;102895.01;;;6.75;31.44
70571;BME280;58135;50.948;-1.458;2023-01-28T02:49:57;102900.90;;;6.77;31.49
70571;BME280;58135;50.948;-1.458;2023-01-28T02:51:01;102900.47;;;6.84;31.49
70571;BME280;58135;50.948;-1.458;2023-01-28T02:52:07;102899.21;;;6.90;31.40
70571;BME280;58135;50.948;-1.458;2023-01-28T02:53:07;102897.99;;;6.88;31.28
70571;BME280;58135;50.948;-1.458;2023-01-28T02:54:02;102897.61;;;6.87;31.28
70571;BME280;58135;50.948;-1.458;2023-01-28T02:55:01;102897.59;;;6.91;31.21
70571;BME280;58135;50.948;-1.458;2023-01-28T02:56:06;102902.19;;;6.92;31.22
70571;BME280;58135;50.948;-1.458;2023-01-28T02:57:05;102903.71;;;6.92;31.21
70571;BME280;58135;50.948;-1.458;2023-01-28T02:58:04;102904.42;;;6.92;31.28
70571;BME280;58135;50.948;-1.458;2023-01-28T02:59:02;102905.18;;;6.52;31.25
70571;BME280;58135;50.948;-1.458;2023-01-28T03:00:05;102904.11;;;7.04;31.26
70571;BME280;58135;50.948;-1.458;2023-01-28T03:01:07;102904.97;;;7.08;31.24
70571;BME280;58135;50.948;-1.458;2023-01-28T03:02:08;102906.55;;;7.03;31.25
70571;BME280;58135;50.948;-1.458;2023-01-28T03:03:07;102908.24;;;6.96;31.18
70571;BME280;58135;50.948;-1.458;2023-01-28T03:04:06;102909.77;;;6.88;31.32
70571;BME280;58135;50.948;-1.458;2023-01-28T03:05:05;102908.40;;;6.38;31.34
70571;BME280;58135;50.948;-1.458;2023-01-28T03:06:06;102909.06;;;6.81;31.27
70571;BME280;58135;50.948;-1.458;2023-01-28T03:07:06;102909.08;;;6.82;31.22
70571;BME280;58135;50.948;-1.458;2023-01-28T03:08:04;102910.16;;;6.83;31.16
70571;BME280;58135;50.948;-1.458;2023-01-28T03:09:05;102909.88;;;6.83;31.16
70571;BME280;58135;50.948;-1.458;2023-01-28T03:10:08;102911.13;;;6.38;31.16
70571;BME280;58135;50.948;-1.458;2023-01-28T03:11:04;102910.34;;;6.82;31.17
70571;BME280;58135;50.948;-1.458;2023-01-28T03:12:08;102910.35;;;6.77;31.21
70571;BME280;58135;50.948;-1.458;2023-01-28T03:13:04;102907.15;;;6.77;31.28
70571;BME280;58135;50.948;-1.458;2023-01-28T03:14:06;102906.50;;;6.82;31.29
70571;BME280;58135;50.948;-1.458;2023-01-28T03:15:09;102907.38;;;6.95;31.27
70571;BME280;58135;50.948;-1.458;2023-01-28T03:16:06;102907.14;;;7.04;31.15
70571;BME280;58135;50.948;-1.458;2023-01-28T03:17:11;102909.75;;;6.44;31.06
70571;BME280;58135;50.948;-1.458;2023-01-28T03:18:10;102914.28;;;6.32;31.16
70571;BME280;58135;50.948;-1.458;2023-01-28T03:19:07;102915.10;;;6.83;31.20
70571;BME280;58135;50.948;-1.458;2023-01-28T03:20:09;102915.63;;;6.89;31.16
70571;BME280;58135;50.948;-1.458;2023-01-28T03:21:10;102918.26;;;6.97;31.15
70571;BME280;58135;50.948;-1.458;2023-01-28T03:22:08;102913.40;;;6.58;31.13
70571;BME280;58135;50.948;-1.458;2023-01-28T03:23:10;102913.10;;;7.10;31.07
70571;BME280;58135;50.948;-1.458;2023-01-28T03:24:12;102912.86;;;7.14;31.01
70571;BME280;58135;50.948;-1.458;2023-01-28T03:25:10;102917.69;;;7.16;31.00
70571;BME280;58135;50.948;-1.458;2023-01-28T03:26:10;102918.22;;;6.74;31.00
70571;BME280;58135;50.948;-1.458;2023-01-28T03:27:15;102917.77;;;7.18;30.92
70571;BME280;58135;50.948;-1.458;2023-01-28T03:28:13;102923.06;;;7.14;30.95
70571;BME280;58135;50.948;-1.458;2023-01-28T03:29:13;102923.47;;;7.06;30.97
70571;BME280;58135;50.948;-1.458;2023-01-28T03:30:16;102923.12;;;7.01;30.96
70571;BME280;58135;50.948;-1.458;2023-01-28T03:31:14;102922.03;;;6.50;30.99
70571;BME280;58135;50.948;-1.458;2023-01-28T03:32:12;102922.88;;;6.43;30.95
70571;BME280;58135;50.948;-1.458;2023-01-28T03:33:14;102920.37;;;6.91;31.05
70571;BME280;58135;50.948;-1.458;2023-01-28T03:34:13;102919.87;;;6.94;31.01
70571;BME280;58135;50.948;-1.458;2023-01-28T03:35:15;102923.09;;;7.00;30.95
70571;BME280;58135;50.948;-1.458;2023-01-28T03:36:13;102923.32;;;7.05;30.98
70571;BME280;58135;50.948;-1.458;2023-01-28T03:37:13;102926.86;;;6.68;30.96
70571;BME280;58135;50.948;-1.458;2023-01-28T03:38:15;102923.25;;;7.21;30.82
70571;BME280;58135;50.948;-1.458;2023-01-28T03:39:15;102922.02;;;7.27;30.83
70571;BME280;58135;50.948;-1.458;2023-01-28T03:40:15;102921.37;;;7.34;30.65
70571;BME280;58135;50.948;-1.458;2023-01-28T03:41:20;102920.24;;;6.90;30.49
70571;BME280;58135;50.948;-1.458;2023-01-28T03:42:15;102923.65;;;6.87;30.46
70571;BME280;58135;50.948;-1.458;2023-01-28T03:43:16;102926.30;;;6.84;30.35
70571;BME280;58135;50.948;-1.458;2023-01-28T03:44:17;102927.26;;;7.29;30.49
70571;BME280;58135;50.948;-1.458;2023-01-28T03:45:18;102928.91;;;7.31;30.53
70571;BME280;58135;50.948;-1.458;2023-01-28T03:46:19;102929.63;;;7.31;30.53
70571;BME280;58135;50.948;-1.458;2023-01-28T03:47:20;102930.67;;;6.88;30.51
70571;BME280;58135;50.948;-1.458;2023-01-28T03:48:21;102929.18;;;6.86;30.60
70571;BME280;58135;50.948;-1.458;2023-01-28T03:49:20;102928.47;;;7.31;30.51
70571;BME280;58135;50.948;-1.458;2023-01-28T03:50:21;102925.32;;;6.79;30.38
70571;BME280;58135;50.948;-1.458;2023-01-28T03:51:21;102928.15;;;7.20;30.58
70571;BME280;58135;50.948;-1.458;2023-01-28T03:52:22;102929.84;;;7.21;30.54
70571;BME280;58135;50.948;-1.458;2023-01-28T03:53:22;102930.84;;;7.18;30.51
70571;BME280;58135;50.948;-1.458;2023-01-28T03:54:22;102936.96;;;7.16;30.60
70571;BME280;58135;50.948;-1.458;2023-01-28T03:55:22;102936.82;;;7.13;30.37
70571;BME280;58135;50.948;-1.458;2023-01-28T03:56:22;102935.99;;;7.00;30.42
70571;BME280;58135;50.948;-1.458;2023-01-28T03:57:25;102933.71;;;6.45;30.57
70571;BME280;58135;50.948;-1.458;2023-01-28T03:58:24;102931.42;;;6.90;30.65
70571;BME280;58135;50.948;-1.458;2023-01-28T03:59:23;102931.51;;;6.91;30.60
70571;BME280;58135;50.948;-1.458;2023-01-28T04:00:23;102930.13;;;6.89;30.64
70571;BME280;58135;50.948;-1.458;2023-01-28T04:01:23;102929.75;;;6.48;30.73
70571;BME280;58135;50.948;-1.458;2023-01-28T04:02:24;102928.86;;;7.08;30.80
70571;BME280;58135;50.948;-1.458;2023-01-28T04:03:25;102932.01;;;7.14;30.59
70571;BME280;58135;50.948;-1.458;2023-01-28T04:04:25;102933.43;;;7.14;30.46
70571;BME280;58135;50.948;-1.458;2023-01-28T04:05:25;102932.24;;;7.09;30.46
70571;BME280;58135;50.948;-1.458;2023-01-28T04:06:25;102932.86;;;7.08;30.59
70571;BME280;58135;50.948;-1.458;2023-01-28T04:07:25;102934.09;;;7.07;30.63
70571;BME280;58135;50.948;-1.458;2023-01-28T04:08:27;102934.92;;;7.01;30.55
70571;BME280;58135;50.948;-1.458;2023-01-28T04:09:26;102935.63;;;6.99;30.58
70571;BME280;58135;50.948;-1.458;2023-01-28T04:10:27;102935.73;;;6.99;30.55
70571;BME280;58135;50.948;-1.458;2023-01-28T04:11:27;102936.61;;;6.96;30.54
70571;BME280;58135;50.948;-1.458;2023-01-28T04:12:28;102936.09;;;6.90;30.56
70571;BME280;58135;50.948;-1.458;2023-01-28T04:13:28;102937.94;;;6.80;30.59
70571;BME280;58135;50.948;-1.458;2023-01-28T04:14:29;102939.40;;;6.25;30.67
70571;BME280;58135;50.948;-1.458;2023-01-28T04:15:29;102939.84;;;6.65;30.69
70571;BME280;58135;50.948;-1.458;2023-01-28T04:16:29;102937.91;;;6.55;30.78
70571;BME280;58135;50.948;-1.458;2023-01-28T04:17:29;102938.67;;;6.55;30.83
70571;BME280;58135;50.948;-1.458;2023-01-28T04:18:29;102940.35;;;6.61;30.93
70571;BME280;58135;50.948;-1.458;2023-01-28T04:19:30;102939.82;;;7.03;30.93
70571;BME280;58135;50.948;-1.458;2023-01-28T04:20:30;102941.02;;;6.53;30.95
70571;BME280;58135;50.948;-1.458;2023-01-28T04:21:30;102941.07;;;6.51;30.93
70571;BME280;58135;50.948;-1.458;2023-01-28T04:22:30;102941.10;;;6.46;30.99
70571;BME280;58135;50.948;-1.458;2023-01-28T04:23:31;102939.91;;;6.48;31.07
70571;BME280;58135;50.948;-1.458;2023-01-28T04:24:31;102937.17;;;6.48;30.98
70571;BME280;58135;50.948;-1.458;2023-01-28T04:25:32;102935.15;;;6.45;31.07
70571;BME280;58135;50.948;-1.458;2023-01-28T04:26:32;102936.29;;;6.45;31.15
70571;BME280;58135;50.948;-1.458;2023-01-28T04:27:33;102936.86;;;6.52;31.13
70571;BME280;58135;50.948;-1.458;2023-01-28T04:28:33;102936.20;;;6.61;31.06
70571;BME280;58135;50.948;-1.458;2023-01-28T04:29:33;102938.07;;;7.09;31.00
70571;BME280;58135;50.948;-1.458;2023-01-28T04:30:33;102937.34;;;6.61;30.81
70571;BME280;58135;50.948;-1.458;2023-01-28T04:31:34;102939.45;;;6.60;30.93
70571;BME280;58135;50.948;-1.458;2023-01-28T04:32:34;102939.63;;;6.65;30.94
70571;BME280;58135;50.948;-1.458;2023-01-28T04:33:34;102939.56;;;6.63;30.92
70571;BME280;58135;50.948;-1.458;2023-01-28T04:34:34;102938.62;;;6.18;30.98
70571;BME280;58135;50.948;-1.458;2023-01-28T04:35:34;102936.76;;;7.14;31.00
70571;BME280;58135;50.948;-1.458;2023-01-28T04:36:35;102936.18;;;7.66;30.99
70571;BME280;58135;50.948;-1.458;2023-01-28T04:37:35;102936.73;;;6.86;30.97
70571;BME280;58135;50.948;-1.458;2023-01-28T04:38:36;102935.65;;;6.95;30.88
70571;BME280;58135;50.948;-1.458;2023-01-28T04:39:36;102935.60;;;7.00;30.89
70571;BME280;58135;50.948;-1.458;2023-01-28T04:40:36;102935.51;;;7.04;30.77
70571;BME280;58135;50.948;-1.458;2023-01-28T04:41:37;102934.96;;;7.04;30.73
70571;BME280;58135;50.948;-1.458;2023-01-28T04:42:37;102932.34;;;7.04;30.86
70571;BME280;58135;50.948;-1.458;2023-01-28T04:43:37;102934.15;;;7.01;30.68
70571;BME280;58135;50.948;-1.458;2023-01-28T04:44:37;102934.24;;;6.97;30.66
70571;BME280;58135;50.948;-1.458;2023-01-28T04:45:38;102933.11;;;6.91;30.68
70571;BME280;58135;50.948;-1.458;2023-01-28T04:46:38;102930.52;;;6.91;30.69
70571;BME280;58135;50.948;-1.458;2023-01-28T04:47:39;102930.55;;;6.98;30.71
70571;BME280;58135;50.948;-1.458;2023-01-28T04:48:39;102930.81;;;7.06;30.69
70571;BME280;58135;50.948;-1.458;2023-01-28T04:49:39;102931.99;;;7.18;30.62
70571;BME280;58135;50.948;-1.458;2023-01-28T04:50:40;102929.99;;;7.24;30.62
70571;BME280;58135;50.948;-1.458;2023-01-28T04:51:40;102928.94;;;6.86;30.60
70571;BME280;58135;50.948;-1.458;2023-01-28T04:52:41;102930.02;;;7.31;30.40
70571;BME280;58135;50.948;-1.458;2023-01-28T04:53:41;102932.88;;;7.27;30.37
70571;BME280;58135;50.948;-1.458;2023-01-28T04:54:42;102931.75;;;6.86;30.37
70571;BME280;58135;50.948;-1.458;2023-01-28T04:55:43;102933.28;;;7.37;30.30
70571;BME280;58135;50.948;-1.458;2023-01-28T04:56:42;102931.90;;;6.92;30.29
70571;BME280;58135;50.948;-1.458;2023-01-28T04:57:42;102930.85;;;6.92;30.03
70571;BME280;58135;50.948;-1.458;2023-01-28T04:58:43;102930.62;;;6.93;30.11
70571;BME280;58135;50.948;-1.458;2023-01-28T04:59:43;102932.94;;;7.45;30.12
70571;BME280;58135;50.948;-1.458;2023-01-28T05:00:43;102931.66;;;7.01;30.12
70571;BME280;58135;50.948;-1.458;2023-01-28T05:01:44;102935.20;;;7.50;30.10
70571;BME280;58135;50.948;-1.458;2023-01-28T05:02:44;102936.12;;;7.51;30.12
70571;BME280;58135;50.948;-1.458;2023-01-28T05:03:44;102935.91;;;7.07;30.05
70571;BME280;58135;50.948;-1.458;2023-01-28T05:04:45;102933.81;;;7.48;29.87
70571;BME280;58135;50.948;-1.458;2023-01-28T05:05:45;102931.96;;;7.02;29.97
70571;BME280;58135;50.948;-1.458;2023-01-28T05:06:46;102928.97;;;7.49;29.95
70571;BME280;58135;50.948;-1.458;2023-01-28T05:07:50;102931.17;;;7.08;30.03
70571;BME280;58135;50.948;-1.458;2023-01-28T05:08:46;102930.83;;;7.06;29.95
70571;BME280;58135;50.948;-1.458;2023-01-28T05:09:47;102929.80;;;6.59;29.78
70571;BME280;58135;50.948;-1.458;2023-01-28T05:10:47;102929.49;;;6.97;29.75
70571;BME280;58135;50.948;-1.458;2023-01-28T05:11:48;102927.99;;;6.98;29.88
70571;BME280;58135;50.948;-1.458;2023-01-28T05:12:48;102923.43;;;6.54;29.78
70571;BME280;58135;50.948;-1.458;2023-01-28T05:13:49;102921.25;;;6.99;29.83
70571;BME280;58135;50.948;-1.458;2023-01-28T05:14:49;102917.39;;;7.05;29.89
70571;BME280;58135;50.948;-1.458;2023-01-28T05:15:51;102918.35;;;7.11;29.93
70571;BME280;58135;50.948;-1.458;2023-01-28T05:16:50;102918.89;;;7.09;29.67